createdAt,value
2019-03-18T00:00:33.285Z,97049.96
2019-03-18T00:03:02.542Z,97046.63
2019-03-18T00:05:31.166Z,97059.56
2019-03-18T00:07:59.841Z,97054.58
2019-03-18T00:10:28.419Z,97050.56
2019-03-18T00:12:57.061Z,97054.22
2019-03-18T00:15:25.809Z,97051.09
2019-03-18T00:17:54.555Z,97049.33
2019-03-18T00:20:23.201Z,97051.45
2019-03-18T00:22:53.310Z,97049.75
2019-03-18T00:25:23.377Z,97049.44
2019-03-18T00:27:52.028Z,97051.50
2019-03-18T00:30:21.288Z,97050.45
2019-03-18T00:32:50.037Z,97052.80
2019-03-18T00:35:18.972Z,97054.36
2019-03-18T00:37:47.742Z,97050.63
2019-03-18T00:40:18.460Z,97048.95
2019-03-18T00:42:48.620Z,97041.00
2019-03-18T00:45:17.264Z,97045.50
2019-03-18T00:47:45.843Z,97040.94
2019-03-18T00:50:15.739Z,97044.34
2019-03-18T00:52:44.588Z,97041.34
2019-03-18T00:55:13.362Z,97044.84
2019-03-18T00:57:41.976Z,97036.26
2019-03-18T01:00:17.481Z,97036.68
2019-03-18T01:02:49.104Z,97035.73
2019-03-18T01:05:16.545Z,97038.18
2019-03-18T01:07:45.191Z,97033.19
2019-03-18T01:10:15.713Z,97030.97
2019-03-18T01:12:44.477Z,97022.14
2019-03-18T01:15:26.837Z,97023.09
2019-03-18T01:17:44.286Z,97030.03
2019-03-18T01:20:15.707Z,97029.50
2019-03-18T01:22:44.358Z,97030.61
2019-03-18T01:25:13.345Z,97030.97
2019-03-18T01:27:41.999Z,97027.78
2019-03-18T01:30:16.558Z,97028.28
2019-03-18T01:32:45.144Z,97027.82
2019-03-18T01:35:13.826Z,97034.34
2019-03-18T01:37:42.541Z,97036.83
2019-03-18T01:40:13.660Z,97028.39
2019-03-18T01:42:42.346Z,97039.19
2019-03-18T01:45:11.970Z,97026.06
2019-03-18T01:47:40.617Z,97038.52
2019-03-18T01:50:13.749Z,97031.07
2019-03-18T01:52:42.330Z,97033.47
2019-03-18T01:55:11.490Z,97028.02
2019-03-18T01:57:40.172Z,97025.11
2019-03-18T02:00:13.986Z,97020.63
2019-03-18T02:02:42.627Z,97017.91
2019-03-18T02:05:11.737Z,97013.78
2019-03-18T02:07:40.323Z,97017.08
2019-03-18T02:10:16.661Z,97019.52
2019-03-18T02:12:45.361Z,97019.36
2019-03-18T02:15:15.292Z,97013.86
2019-03-18T02:17:43.935Z,97009.03
2019-03-18T02:20:19.455Z,97015.83
2019-03-18T02:22:48.704Z,97019.77
2019-03-18T02:25:17.274Z,97016.88
2019-03-18T02:27:45.792Z,97025.37
2019-03-18T02:30:19.362Z,97021.22
2019-03-18T02:32:48.138Z,97032.00
2019-03-18T02:35:16.898Z,97031.27
2019-03-18T02:37:45.608Z,97024.44
2019-03-18T02:40:14.667Z,97034.98
2019-03-18T02:42:43.238Z,97032.97
2019-03-18T02:45:12.330Z,97034.59
2019-03-18T02:47:40.981Z,97030.69
2019-03-18T02:50:10.326Z,97034.17
2019-03-18T02:52:38.956Z,97032.06
2019-03-18T02:55:08.712Z,97036.84
2019-03-18T02:57:37.614Z,97039.00
2019-03-18T03:00:14.400Z,97043.40
2019-03-18T03:02:43.098Z,97048.07
2019-03-18T03:05:12.939Z,97055.80
2019-03-18T03:07:41.584Z,97059.27
2019-03-18T03:10:11.863Z,97066.41
2019-03-18T03:12:40.503Z,97056.12
2019-03-18T03:15:11.716Z,97060.75
2019-03-18T03:17:40.623Z,97058.95
2019-03-18T03:20:10.962Z,97052.42
2019-03-18T03:22:39.577Z,97053.13
2019-03-18T03:25:09.367Z,97058.62
2019-03-18T03:27:38.000Z,97064.01
2019-03-18T03:30:09.911Z,97064.99
2019-03-18T03:32:38.419Z,97065.39
2019-03-18T03:35:08.157Z,97064.52
2019-03-18T03:37:36.832Z,97065.38
2019-03-18T03:40:12.640Z,97072.80
2019-03-18T03:42:41.213Z,97071.90
2019-03-18T03:45:14.641Z,97085.08
2019-03-18T03:47:43.316Z,97083.05
2019-03-18T03:50:14.235Z,97090.95
2019-03-18T03:52:42.756Z,97090.22
2019-03-18T03:55:15.010Z,97093.91
2019-03-18T03:57:45.469Z,97093.38
2019-03-18T04:00:15.667Z,97094.70
2019-03-18T04:02:44.625Z,97101.89
2019-03-18T04:05:13.265Z,97104.15
2019-03-18T04:07:41.934Z,97096.15
2019-03-18T04:10:11.807Z,97097.75
2019-03-18T04:12:40.472Z,97100.33
2019-03-18T04:15:11.296Z,97112.56
2019-03-18T04:17:39.856Z,97111.70
2019-03-18T04:20:13.879Z,97109.63
2019-03-18T04:22:42.517Z,97115.08
2019-03-18T04:25:11.449Z,97112.47
2019-03-18T04:27:40.812Z,97115.29
2019-03-18T04:30:14.447Z,97120.08
2019-03-18T04:32:43.133Z,97117.70
2019-03-18T04:35:11.794Z,97123.49
2019-03-18T04:37:40.548Z,97127.87
2019-03-18T04:40:11.453Z,97128.49
2019-03-18T04:42:40.095Z,97132.44
2019-03-18T04:45:09.744Z,97131.64
2019-03-18T04:47:38.434Z,97132.38
2019-03-18T04:50:11.589Z,97128.58
2019-03-18T04:52:40.165Z,97127.55
2019-03-18T04:55:09.265Z,97126.06
2019-03-18T04:57:40.938Z,97124.19
2019-03-18T05:00:14.955Z,97133.05
2019-03-18T05:02:43.536Z,97129.73
2019-03-18T05:05:12.267Z,97136.48
2019-03-18T05:07:40.946Z,97133.91
2019-03-18T05:10:10.892Z,97138.95
2019-03-18T05:12:39.470Z,97135.47
2019-03-18T05:15:09.857Z,97147.66
2019-03-18T05:17:38.500Z,97148.58
2019-03-18T05:20:09.350Z,97149.14
2019-03-18T05:22:38.015Z,97145.82
2019-03-18T05:25:08.871Z,97152.05
2019-03-18T05:27:37.483Z,97155.63
2019-03-18T05:30:11.842Z,97145.20
2019-03-18T05:32:40.307Z,97154.59
2019-03-18T05:35:08.964Z,97145.71
2019-03-18T05:37:37.610Z,97152.70
2019-03-18T05:40:08.574Z,97150.45
2019-03-18T05:42:37.226Z,97150.87
2019-03-18T05:45:09.891Z,97151.56
2019-03-18T05:47:40.008Z,97150.37
2019-03-18T05:50:10.504Z,97149.46
2019-03-18T05:52:39.149Z,97152.57
2019-03-18T05:55:09.141Z,97153.15
2019-03-18T05:57:37.789Z,97148.55
2019-03-18T06:00:14.957Z,97155.02
2019-03-18T06:02:46.647Z,97153.90
2019-03-18T06:05:13.890Z,97155.64
2019-03-18T06:07:42.439Z,97153.28
2019-03-18T06:10:12.612Z,97145.78
2019-03-18T06:12:41.272Z,97146.23
2019-03-18T06:15:12.148Z,97142.67
2019-03-18T06:17:51.661Z,97134.22
2019-03-18T06:20:12.585Z,97137.44
2019-03-18T06:22:41.818Z,97133.98
2019-03-18T06:25:10.570Z,97134.64
2019-03-18T06:27:40.447Z,97127.59
2019-03-18T06:30:13.783Z,97123.57
2019-03-18T06:32:42.625Z,97125.83
2019-03-18T06:35:12.691Z,97130.19
2019-03-18T06:37:43.975Z,97126.36
2019-03-18T06:40:14.627Z,97119.42
2019-03-18T06:42:43.280Z,97123.19
2019-03-18T06:45:12.730Z,97118.13
2019-03-18T06:47:41.459Z,97113.39
2019-03-18T06:50:11.518Z,97111.34
2019-03-18T06:52:40.448Z,97109.41
2019-03-18T06:55:09.115Z,97116.92
2019-03-18T06:57:37.748Z,97112.97
2019-03-18T07:00:12.009Z,97111.62
2019-03-18T07:02:40.668Z,97111.59
2019-03-18T07:05:09.342Z,97103.88
2019-03-18T07:07:38.108Z,97097.73
2019-03-18T07:10:11.815Z,97094.83
2019-03-18T07:12:40.598Z,97094.44
2019-03-18T07:15:10.398Z,97094.02
2019-03-18T07:17:39.048Z,97095.53
2019-03-18T07:20:10.264Z,97090.46
2019-03-18T07:22:39.974Z,97092.77
2019-03-18T07:25:08.919Z,97083.33
2019-03-18T07:27:37.587Z,97079.11
2019-03-18T07:30:09.361Z,97073.64
2019-03-18T07:32:38.076Z,97077.13
2019-03-18T07:35:07.232Z,97078.02
2019-03-18T07:37:36.144Z,97069.88
2019-03-18T07:40:11.320Z,97065.34
2019-03-18T07:42:40.362Z,97064.73
2019-03-18T07:45:15.596Z,97060.75
2019-03-18T07:47:44.260Z,97057.45
2019-03-18T07:50:14.411Z,97053.14
2019-03-18T07:52:43.120Z,97049.16
2019-03-18T07:55:11.772Z,97043.45
2019-03-18T07:57:40.447Z,97038.96
2019-03-18T08:00:16.204Z,97025.67
2019-03-18T08:02:46.205Z,97024.28
2019-03-18T08:05:14.929Z,97014.59
2019-03-18T08:07:43.595Z,97025.66
2019-03-18T08:10:13.443Z,97017.59
2019-03-18T08:12:42.354Z,97010.60
2019-03-18T08:15:14.402Z,97009.64
2019-03-18T08:17:43.065Z,96997.73
2019-03-18T08:20:14.874Z,96995.97
2019-03-18T08:22:43.512Z,96992.68
2019-03-18T08:25:12.250Z,96994.02
2019-03-18T08:27:40.907Z,96988.88
2019-03-18T08:30:17.342Z,96982.53
2019-03-18T08:32:45.933Z,96975.87
2019-03-18T08:35:14.599Z,96976.85
2019-03-18T08:37:43.358Z,96960.47
2019-03-18T08:40:13.090Z,96967.91
2019-03-18T08:42:43.206Z,96964.30
2019-03-18T08:45:13.212Z,96963.70
2019-03-18T08:47:41.918Z,96961.70
2019-03-18T08:50:12.433Z,96952.03
2019-03-18T08:52:41.636Z,96950.98
2019-03-18T08:55:16.163Z,96945.86
2019-03-18T08:57:44.843Z,96936.84
2019-03-18T09:00:17.663Z,96938.72
2019-03-18T09:02:46.262Z,96930.64
2019-03-18T09:05:14.730Z,96919.09
2019-03-18T09:07:43.489Z,96916.95
2019-03-18T09:10:14.575Z,96919.06
2019-03-18T09:12:43.341Z,96911.34
2019-03-18T09:15:13.207Z,96905.39
2019-03-18T09:17:41.965Z,96900.75
2019-03-18T09:20:18.114Z,96896.06
2019-03-18T09:22:46.774Z,96890.64
2019-03-18T09:25:15.363Z,96887.41
2019-03-18T09:27:45.297Z,96887.02
2019-03-18T09:30:19.046Z,96883.30
2019-03-18T09:32:49.165Z,96876.44
2019-03-18T09:35:17.859Z,96869.22
2019-03-18T09:37:46.503Z,96873.38
2019-03-18T09:40:16.855Z,96876.30
2019-03-18T09:42:45.558Z,96865.57
2019-03-18T09:45:17.949Z,96865.73
2019-03-18T09:47:46.767Z,96867.83
2019-03-18T09:50:16.559Z,96868.39
2019-03-18T09:52:45.220Z,96867.55
2019-03-18T09:55:14.172Z,96859.67
2019-03-18T09:57:44.475Z,96855.78
2019-03-18T10:00:15.565Z,96846.11
2019-03-18T10:02:44.205Z,96840.42
2019-03-18T10:05:12.967Z,96848.74
2019-03-18T10:07:41.665Z,96839.44
2019-03-18T10:10:14.220Z,96838.06
2019-03-18T10:12:42.989Z,96829.20
2019-03-18T10:15:19.666Z,96831.12
2019-03-18T10:17:48.314Z,96830.19
2019-03-18T10:20:16.985Z,96830.58
2019-03-18T10:22:45.580Z,96830.13
2019-03-18T10:25:17.180Z,96822.25
2019-03-18T10:27:45.856Z,96829.11
2019-03-18T10:30:16.297Z,96823.37
2019-03-18T10:32:44.937Z,96831.81
2019-03-18T10:35:13.654Z,96830.44
2019-03-18T10:37:42.374Z,96826.07
2019-03-18T10:40:12.346Z,96819.80
2019-03-18T10:42:41.138Z,96813.53
2019-03-18T10:45:11.775Z,96811.67
2019-03-18T10:47:40.486Z,96813.22
2019-03-18T10:50:15.350Z,96809.05
2019-03-18T10:52:44.005Z,96814.37
2019-03-18T10:55:12.832Z,96809.15
2019-03-18T10:57:41.414Z,96803.81
2019-03-18T11:00:15.888Z,96804.67
2019-03-18T11:02:45.184Z,96800.53
2019-03-18T11:05:15.218Z,96790.80
2019-03-18T11:07:43.865Z,96783.50
2019-03-18T11:10:17.227Z,96772.22
2019-03-18T11:12:45.889Z,96785.02
2019-03-18T11:15:16.035Z,96779.23
2019-03-18T11:17:44.851Z,96786.88
2019-03-18T11:20:14.608Z,96780.73
2019-03-18T11:22:43.270Z,96772.48
2019-03-18T11:25:13.884Z,96776.45
2019-03-18T11:27:42.555Z,96768.17
2019-03-18T11:30:21.205Z,96755.97
2019-03-18T11:32:49.807Z,96754.30
2019-03-18T11:35:18.431Z,96755.44
2019-03-18T11:37:47.162Z,96750.25
2019-03-18T11:40:26.053Z,96746.84
2019-03-18T11:42:54.869Z,96732.58
2019-03-18T11:45:23.580Z,96728.75
2019-03-18T11:47:52.419Z,96728.92
2019-03-18T11:50:21.525Z,96728.68
2019-03-18T11:52:50.137Z,96733.28
2019-03-18T11:55:20.917Z,96728.75
2019-03-18T11:57:49.683Z,96731.03
2019-03-18T12:00:20.059Z,96730.92
2019-03-18T12:02:48.687Z,96721.91
2019-03-18T12:05:22.839Z,96733.49
2019-03-18T12:07:51.496Z,96712.41
2019-03-18T12:10:21.356Z,96723.86
2019-03-18T12:12:50.073Z,96713.98
2019-03-18T12:15:21.715Z,96712.55
2019-03-18T12:17:50.671Z,96710.70
2019-03-18T12:20:24.671Z,96697.80
2019-03-18T12:22:49.755Z,96695.99
2019-03-18T12:25:18.418Z,96698.58
2019-03-18T12:27:47.043Z,96695.52
2019-03-18T12:30:22.130Z,96684.14
2019-03-18T12:32:50.775Z,96694.61
2019-03-18T12:35:19.533Z,96691.35
2019-03-18T12:37:48.203Z,96688.48
2019-03-18T12:40:17.846Z,96690.73
2019-03-18T12:42:46.531Z,96679.30
2019-03-18T12:45:22.454Z,96691.95
2019-03-18T12:47:51.283Z,96685.19
2019-03-18T12:50:39.186Z,96685.52
2019-03-18T12:52:54.469Z,96685.82
2019-03-18T12:55:23.226Z,96675.98
2019-03-18T12:57:51.943Z,96683.98
2019-03-18T13:00:27.074Z,96683.31
2019-03-18T13:02:55.818Z,96676.35
2019-03-18T13:05:24.476Z,96669.13
2019-03-18T13:07:53.083Z,96673.09
2019-03-18T13:10:22.388Z,96680.75
2019-03-18T13:12:51.131Z,96667.80
2019-03-18T13:15:20.564Z,96663.27
2019-03-18T13:18:03.713Z,96669.80
2019-03-18T13:20:32.540Z,96659.55
2019-03-18T13:23:01.290Z,96669.03
2019-03-18T13:25:29.927Z,96665.72
2019-03-18T13:27:58.299Z,96647.48
2019-03-18T13:30:27.021Z,96656.52
2019-03-18T13:32:59.922Z,96648.42
2019-03-18T13:35:28.594Z,96658.05
2019-03-18T13:37:57.180Z,96650.60
2019-03-18T13:40:26.025Z,96647.32
2019-03-18T13:42:54.897Z,96651.67
2019-03-18T13:45:24.156Z,96648.95
2019-03-18T13:47:52.736Z,96645.31
2019-03-18T13:50:22.416Z,96647.05
2019-03-18T13:52:51.498Z,96645.00
2019-03-18T13:55:20.156Z,96639.69
2019-03-18T13:57:48.766Z,96637.95
2019-03-18T14:00:23.411Z,96636.06
2019-03-18T14:02:52.067Z,96632.69
2019-03-18T14:05:20.757Z,96629.56
2019-03-18T14:07:59.813Z,96635.45
2019-03-18T14:10:21.312Z,96637.83
2019-03-18T14:12:50.085Z,96634.70
2019-03-18T14:15:20.432Z,96635.11
2019-03-18T14:17:50.427Z,96627.59
2019-03-18T14:20:28.277Z,96623.31
2019-03-18T14:22:56.959Z,96636.23
2019-03-18T14:25:25.620Z,96623.84
2019-03-18T14:27:54.204Z,96621.58
2019-03-18T14:30:24.034Z,96621.69
2019-03-18T14:32:52.691Z,96625.66
2019-03-18T14:35:22.066Z,96630.27
2019-03-18T14:37:51.730Z,96633.71
2019-03-18T14:40:25.090Z,96628.12
2019-03-18T14:42:53.761Z,96636.91
2019-03-18T14:45:23.482Z,96632.72
2019-03-18T14:47:52.548Z,96645.41
2019-03-18T14:50:21.203Z,96634.05
2019-03-18T14:52:49.847Z,96635.00
2019-03-18T14:55:19.406Z,96638.15
2019-03-18T14:57:48.035Z,96637.66
2019-03-18T15:00:28.344Z,96638.65
2019-03-18T15:02:56.981Z,96641.00
2019-03-18T15:05:27.672Z,96643.42
2019-03-18T15:07:56.385Z,96642.86
2019-03-18T15:10:26.657Z,96635.26
2019-03-18T15:12:55.407Z,96643.85
2019-03-18T15:15:24.132Z,96649.73
2019-03-18T15:17:52.765Z,96655.99
2019-03-18T15:20:26.342Z,96648.44
2019-03-18T15:22:59.528Z,96651.40
2019-03-18T15:25:38.907Z,96664.00
2019-03-18T15:28:07.556Z,96657.13
2019-03-18T15:30:36.200Z,96675.38
2019-03-18T15:33:04.873Z,96672.31
2019-03-18T15:35:33.554Z,96669.30
2019-03-18T15:38:02.305Z,96669.13
2019-03-18T15:40:30.989Z,96670.75
2019-03-18T15:42:59.665Z,96665.97
2019-03-18T15:45:32.895Z,96671.53
2019-03-18T15:48:04.145Z,96669.17
2019-03-18T15:50:33.012Z,96679.92
2019-03-18T15:53:01.691Z,96686.11
2019-03-18T15:55:30.436Z,96684.28
2019-03-18T15:57:59.150Z,96686.61
2019-03-18T16:00:29.199Z,96681.09
2019-03-18T16:02:58.786Z,96691.50
2019-03-18T16:05:37.535Z,96688.86
2019-03-18T16:08:06.206Z,96690.59
2019-03-18T16:10:39.689Z,96698.16
2019-03-18T16:13:09.995Z,96693.42
2019-03-18T16:15:38.634Z,96700.52
2019-03-18T16:18:07.281Z,96693.59
2019-03-18T16:20:35.945Z,96702.04
2019-03-18T16:23:04.658Z,96697.94
2019-03-18T16:25:33.303Z,96699.72
2019-03-18T16:28:13.123Z,96709.02
2019-03-18T16:30:41.759Z,96711.06
2019-03-18T16:33:10.333Z,96707.57
2019-03-18T16:35:39.058Z,96710.94
2019-03-18T16:38:07.704Z,96721.04
2019-03-18T16:40:36.278Z,96711.07
2019-03-18T16:43:04.988Z,96718.63
2019-03-18T16:45:33.630Z,96712.97
2019-03-18T16:48:02.205Z,96719.34
2019-03-18T16:50:32.001Z,96722.19
2019-03-18T16:53:00.657Z,96725.19
2019-03-18T16:55:29.375Z,96724.21
2019-03-18T16:57:58.019Z,96733.35
2019-03-18T17:00:28.437Z,96731.65
2019-03-18T17:02:57.080Z,96737.24
2019-03-18T17:05:25.647Z,96736.72
2019-03-18T17:07:54.733Z,96736.47
2019-03-18T17:10:23.548Z,96745.70
2019-03-18T17:12:52.194Z,96748.34
2019-03-18T17:15:23.522Z,96752.98
2019-03-18T17:17:52.158Z,96764.95
2019-03-18T17:20:20.818Z,96769.72
2019-03-18T17:22:50.339Z,96766.44
2019-03-18T17:25:21.899Z,96769.99
2019-03-18T17:27:50.569Z,96779.45
2019-03-18T17:30:20.195Z,96782.38
2019-03-18T17:32:48.834Z,96789.32
2019-03-18T17:35:17.473Z,96793.32
2019-03-18T17:37:46.129Z,96776.06
2019-03-18T17:40:16.256Z,96806.38
2019-03-18T17:42:44.980Z,96805.13
2019-03-18T17:45:18.142Z,96807.50
2019-03-18T17:47:46.831Z,96807.73
2019-03-18T17:50:20.775Z,96807.98
2019-03-18T17:53:01.419Z,96821.27
2019-03-18T17:55:19.800Z,96816.44
2019-03-18T17:57:48.439Z,96815.61
2019-03-18T18:00:32.704Z,96819.45
2019-03-18T18:03:01.662Z,96817.05
2019-03-18T18:05:31.101Z,96810.71
2019-03-18T18:07:59.657Z,96829.27
2019-03-18T18:10:28.296Z,96820.03
2019-03-18T18:12:56.979Z,96830.75
2019-03-18T18:15:25.625Z,96833.48
2019-03-18T18:17:54.270Z,96833.48
2019-03-18T18:20:23.972Z,96840.30
2019-03-18T18:22:52.624Z,96845.26
2019-03-18T18:25:21.258Z,96845.26
2019-03-18T18:27:49.949Z,96840.73
2019-03-18T18:30:19.280Z,96841.80
2019-03-18T18:32:47.928Z,96828.67
2019-03-18T18:35:16.627Z,96851.05
2019-03-18T18:37:45.204Z,96851.05
2019-03-18T18:40:16.295Z,96849.39
2019-03-18T18:42:44.934Z,96845.86
2019-03-18T18:45:13.681Z,96853.18
2019-03-18T18:47:42.318Z,96858.92
2019-03-18T18:50:12.484Z,96858.47
2019-03-18T18:52:41.130Z,96862.95
2019-03-18T18:55:10.946Z,96858.44
2019-03-18T18:57:39.752Z,96861.62
2019-03-18T19:00:16.188Z,96865.92
2019-03-18T19:02:44.980Z,96865.08
2019-03-18T19:05:15.769Z,96856.72
2019-03-18T19:07:44.409Z,96865.02
2019-03-18T19:10:27.634Z,96871.98
2019-03-18T19:13:05.750Z,96870.36
2019-03-18T19:15:52.119Z,96870.80
2019-03-18T19:18:20.785Z,96863.66
2019-03-18T19:20:49.276Z,96862.70
2019-03-18T19:23:17.990Z,96864.76
2019-03-18T19:25:48.286Z,96875.92
2019-03-18T19:28:17.015Z,96883.29
2019-03-18T19:30:58.078Z,96880.62
2019-03-18T19:33:26.560Z,96882.17
2019-03-18T19:35:55.204Z,96879.42
2019-03-18T19:38:32.968Z,96873.91
2019-03-18T19:41:09.856Z,96879.84
2019-03-18T19:43:38.548Z,96883.41
2019-03-18T19:46:12.199Z,96881.45
2019-03-18T19:48:46.515Z,96881.64
2019-03-18T19:51:24.160Z,96892.95
2019-03-18T19:53:57.572Z,96891.08
2019-03-18T19:56:29.538Z,96898.59
2019-03-18T19:59:03.074Z,96907.30
2019-03-18T20:01:42.829Z,96909.64
2019-03-18T20:04:19.387Z,96902.55
2019-03-18T20:06:49.735Z,96908.20
2019-03-18T20:09:34.125Z,96907.34
2019-03-18T20:12:02.978Z,96911.13
2019-03-18T20:14:32.783Z,96910.40
2019-03-18T20:17:01.691Z,96915.78
2019-03-18T20:19:30.459Z,96919.28
2019-03-18T20:21:59.173Z,96921.59
2019-03-18T20:24:27.817Z,96918.17
2019-03-18T20:26:58.753Z,96927.17
2019-03-18T20:29:32.266Z,96922.50
2019-03-18T20:32:00.918Z,96930.27
2019-03-18T20:34:29.705Z,96928.03
2019-03-18T20:36:58.311Z,96931.70
2019-03-18T20:39:26.889Z,96930.19
2019-03-18T20:41:55.583Z,96937.72
2019-03-18T20:44:24.108Z,96939.31
2019-03-18T20:46:52.826Z,96936.68
2019-03-18T20:49:21.510Z,96941.81
2019-03-18T20:51:50.081Z,96946.23
2019-03-18T20:54:18.657Z,96947.48
2019-03-18T20:56:47.353Z,96953.87
2019-03-18T20:59:16.000Z,96950.34
2019-03-18T21:01:44.601Z,96950.93
2019-03-18T21:04:13.220Z,96949.39
2019-03-18T21:06:41.850Z,96954.60
2019-03-18T21:09:10.493Z,96961.30
2019-03-18T21:11:39.228Z,96967.87
2019-03-18T21:14:07.764Z,96964.50
2019-03-18T21:16:36.429Z,96968.23
2019-03-18T21:19:05.145Z,96966.09
2019-03-18T21:21:33.724Z,96959.80
2019-03-18T21:24:02.373Z,96963.31
2019-03-18T21:26:31.033Z,96962.54
2019-03-18T21:28:59.534Z,96970.05
2019-03-18T21:31:28.180Z,96974.50
2019-03-18T21:33:56.874Z,96976.27
2019-03-18T21:36:37.565Z,96978.83
2019-03-18T21:38:55.902Z,96980.66
2019-03-18T21:41:27.063Z,96989.50
2019-03-18T21:43:54.944Z,96982.28
2019-03-18T21:46:23.517Z,96981.16
2019-03-18T21:48:52.071Z,96979.27
2019-03-18T21:51:20.716Z,96981.32
2019-03-18T21:53:49.359Z,96985.33
2019-03-18T21:56:17.923Z,96977.59
2019-03-18T21:58:46.488Z,96981.18
2019-03-18T22:01:15.128Z,96980.19
2019-03-18T22:03:43.714Z,96981.87
2019-03-18T22:06:12.399Z,96984.44
2019-03-18T22:08:42.075Z,96986.36
2019-03-18T22:11:10.722Z,96992.06
2019-03-18T22:13:39.276Z,96993.58
2019-03-18T22:16:07.919Z,96995.00
2019-03-18T22:18:36.632Z,96993.67
2019-03-18T22:21:05.537Z,97002.67
2019-03-18T22:23:34.187Z,97001.64
2019-03-18T22:26:02.908Z,97007.91
2019-03-18T22:28:31.582Z,97007.86
2019-03-18T22:31:00.136Z,97010.27
2019-03-18T22:33:29.707Z,97017.09
2019-03-18T22:35:59.149Z,97009.88
2019-03-18T22:38:27.793Z,97010.88
2019-03-18T22:40:57.453Z,97008.75
2019-03-18T22:43:26.092Z,97019.71
2019-03-18T22:45:54.736Z,97020.97
2019-03-18T22:48:23.281Z,97017.30
2019-03-18T22:50:51.928Z,97023.31
2019-03-18T22:53:20.583Z,97028.86
2019-03-18T22:55:49.196Z,97027.87
2019-03-18T22:58:19.426Z,97034.75
2019-03-18T23:00:50.160Z,97036.20
2019-03-18T23:03:18.810Z,97036.44
2019-03-18T23:05:47.424Z,97039.86
2019-03-18T23:08:16.067Z,97045.50
2019-03-18T23:10:44.789Z,97045.37
2019-03-18T23:13:13.487Z,97053.70
2019-03-18T23:15:42.054Z,97049.67
2019-03-18T23:18:10.691Z,97051.67
2019-03-18T23:20:39.377Z,97048.23
2019-03-18T23:23:07.876Z,97057.28
2019-03-18T23:25:36.526Z,97050.05
2019-03-18T23:28:05.231Z,97059.00
2019-03-18T23:30:33.800Z,97059.00
2019-03-18T23:33:02.366Z,97063.45
2019-03-18T23:35:31.019Z,97064.83
2019-03-18T23:37:59.707Z,97067.22
2019-03-18T23:40:28.289Z,97067.05
2019-03-18T23:42:56.688Z,97073.06
2019-03-18T23:45:25.370Z,97069.64
2019-03-18T23:47:54.016Z,97072.91
2019-03-18T23:50:22.725Z,97072.68
2019-03-18T23:52:51.410Z,97069.84
2019-03-18T23:55:20.215Z,97068.52
2019-03-18T23:57:48.896Z,97067.08
